Time;durP1;ratioP1;P1;durP2;ratioP2;P2;SDS_P1;SDS_P2;PMS_P1;PMS_P2;Temp;Humidity;BMP_temperature;BMP_pressure;BME280_temperature;BME280_humidity;BME280_pressure;Samples;Min_cycle;Max_cycle;Signal;HPM_P1;HPM_P2
2021/10/24 00:00:38;;;;;;;30.50;17.52;;;3.20;99.90;;;;;;5054415;28;20029;-68
2021/10/24 00:03:03;;;;;;;31.35;18.08;;;3.20;99.90;;;;;;5054436;28;20098;-69
2021/10/24 00:05:29;;;;;;;34.67;18.45;;;3.30;99.90;;;;;;5054365;28;20044;-69
2021/10/24 00:07:55;;;;;;;32.08;17.50;;;3.30;99.90;;;;;;5052511;28;20493;-69
2021/10/24 00:10:20;;;;;;;37.20;19.25;;;3.30;99.90;;;;;;5054015;28;20029;-68
2021/10/24 00:12:46;;;;;;;36.00;19.02;;;3.20;99.90;;;;;;5054253;28;20111;-69
2021/10/24 00:15:11;;;;;;;47.20;20.13;;;3.30;99.90;;;;;;5053973;28;20082;-68
2021/10/24 00:17:37;;;;;;;33.83;19.08;;;3.30;99.90;;;;;;5054177;28;20071;-69
2021/10/24 00:20:03;;;;;;;39.92;19.48;;;3.30;99.90;;;;;;5052284;28;20123;-68
2021/10/24 00:22:29;;;;;;;33.10;19.77;;;3.20;99.90;;;;;;5054136;28;20096;-69
2021/10/24 00:24:54;;;;;;;33.45;17.27;;;3.20;99.90;;;;;;5052697;28;20100;-69
2021/10/24 00:27:20;;;;;;;38.78;18.73;;;3.10;99.90;;;;;;5053776;28;20052;-69
2021/10/24 00:29:46;;;;;;;40.28;19.88;;;3.10;99.90;;;;;;5054044;28;20467;-69
2021/10/24 00:32:12;;;;;;;29.85;18.17;;;3.10;99.90;;;;;;5054004;28;20028;-69
2021/10/24 00:34:39;;;;;;;33.38;18.60;;;3.00;99.90;;;;;;5053472;28;20108;-69
2021/10/24 00:37:05;;;;;;;32.58;17.63;;;3.00;99.90;;;;;;5053673;28;20424;-69
2021/10/24 00:39:31;;;;;;;32.45;17.55;;;3.00;99.90;;;;;;5053243;28;20081;-69
2021/10/24 00:41:57;;;;;;;33.85;17.10;;;2.90;99.90;;;;;;5053897;28;20074;-69
2021/10/24 00:44:25;;;;;;;36.20;16.73;;;2.90;99.90;;;;;;5053591;28;20482;-68
2021/10/24 00:46:52;;;;;;;28.83;16.70;;;2.80;99.90;;;;;;5052387;28;20033;-69
2021/10/24 00:49:19;;;;;;;28.38;16.05;;;2.80;99.90;;;;;;5052055;28;20029;-69
2021/10/24 00:51:45;;;;;;;29.20;15.98;;;2.70;99.90;;;;;;5052404;28;20033;-68
2021/10/24 00:54:13;;;;;;;28.15;16.38;;;2.70;99.90;;;;;;5053804;28;20028;-68
2021/10/24 00:56:40;;;;;;;28.00;14.93;;;2.70;99.90;;;;;;5053507;28;20025;-68
2021/10/24 00:59:08;;;;;;;28.50;15.45;;;2.60;99.90;;;;;;5053717;28;20029;-68
2021/10/24 01:01:34;;;;;;;28.48;15.52;;;2.60;99.90;;;;;;5052754;28;20390;-69
2021/10/24 01:03:59;;;;;;;29.33;16.05;;;2.60;99.90;;;;;;5035573;28;20025;-68
2021/10/24 01:06:25;;;;;;;30.27;16.25;;;2.60;99.90;;;;;;5053437;28;20059;-68
2021/10/24 01:08:50;;;;;;;33.80;18.13;;;2.70;99.90;;;;;;5053379;28;20032;-69
2021/10/24 01:11:16;;;;;;;38.90;19.00;;;2.80;99.90;;;;;;5053650;28;20367;-69
2021/10/24 01:13:42;;;;;;;30.23;18.00;;;2.90;99.90;;;;;;5035221;28;20029;-69
2021/10/24 01:16:12;;;;;;;37.22;18.40;;;2.90;99.90;;;;;;5052451;28;20418;-68
2021/10/24 01:18:38;;;;;;;28.77;15.68;;;2.90;99.90;;;;;;5052951;28;20075;-68
2021/10/24 01:21:04;;;;;;;28.73;16.27;;;2.80;99.90;;;;;;5052596;28;20024;-68
2021/10/24 01:23:30;;;;;;;25.98;15.25;;;2.70;99.90;;;;;;5051747;28;20436;-68
2021/10/24 01:25:57;;;;;;;27.05;15.13;;;2.60;99.90;;;;;;5052066;28;20116;-68
2021/10/24 01:28:22;;;;;;;31.35;17.55;;;2.50;99.90;;;;;;5052912;28;20470;-68
2021/10/24 01:30:48;;;;;;;34.10;18.73;;;2.50;99.90;;;;;;5051647;28;20028;-68
2021/10/24 01:33:14;;;;;;;35.03;18.02;;;2.60;99.90;;;;;;5053436;28;20033;-68
2021/10/24 01:35:58;;;;;;;36.05;17.70;;;2.70;99.90;;;;;;5051945;28;20428;-69
2021/10/24 01:38:26;;;;;;;30.35;17.05;;;2.60;99.90;;;;;;5052966;28;20041;-69
2021/10/24 01:40:54;;;;;;;24.48;16.10;;;2.60;99.90;;;;;;5052825;28;20017;-69
2021/10/24 01:43:21;;;;;;;31.77;16.67;;;2.50;99.90;;;;;;5053324;28;20021;-68
2021/10/24 01:45:47;;;;;;;38.47;17.73;;;2.40;99.90;;;;;;5053709;28;20025;-69
2021/10/24 01:48:13;;;;;;;36.40;17.23;;;2.40;99.90;;;;;;5056712;28;20044;-69
2021/10/24 01:50:40;;;;;;;23.35;15.43;;;2.30;99.90;;;;;;5056879;28;20024;-68
2021/10/24 01:53:06;;;;;;;29.80;16.55;;;2.30;99.90;;;;;;5055073;28;20421;-68
2021/10/24 01:55:32;;;;;;;28.17;15.90;;;2.30;99.90;;;;;;5056834;28;20025;-68
2021/10/24 01:57:58;;;;;;;33.80;16.92;;;2.30;99.90;;;;;;5056769;28;20105;-68
2021/10/24 02:00:24;;;;;;;32.45;16.92;;;2.30;99.90;;;;;;5056647;28;20108;-68
2021/10/24 02:02:50;;;;;;;26.23;15.48;;;2.30;99.90;;;;;;5056405;28;20066;-68
2021/10/24 02:05:16;;;;;;;34.65;17.25;;;2.20;99.90;;;;;;5055221;28;20025;-68
2021/10/24 02:07:41;;;;;;;24.30;15.60;;;2.20;99.90;;;;;;5056302;28;20378;-68
2021/10/24 02:10:10;;;;;;;30.35;16.77;;;2.20;99.90;;;;;;5055100;28;20032;-68
2021/10/24 02:12:37;;;;;;;29.65;16.67;;;2.20;99.90;;;;;;5056479;28;20098;-68
2021/10/24 02:15:04;;;;;;;32.67;15.35;;;2.20;99.90;;;;;;5055004;28;20021;-68
2021/10/24 02:17:30;;;;;;;27.42;14.63;;;2.20;99.90;;;;;;5038074;28;20025;-68
2021/10/24 02:19:56;;;;;;;27.00;14.90;;;2.10;99.90;;;;;;5037900;28;20116;-68
2021/10/24 02:22:21;;;;;;;33.15;17.00;;;2.10;99.90;;;;;;5056036;28;20028;-68
2021/10/24 02:24:47;;;;;;;24.35;14.90;;;2.10;99.90;;;;;;5056293;28;20021;-68
2021/10/24 02:27:13;;;;;;;25.55;14.82;;;2.10;99.90;;;;;;5055690;28;20033;-68
2021/10/24 02:29:39;;;;;;;28.75;16.33;;;2.10;99.90;;;;;;5055033;28;20040;-68
2021/10/24 02:32:04;;;;;;;33.17;16.25;;;2.10;99.90;;;;;;5055871;28;20355;-68
2021/10/24 02:34:30;;;;;;;27.73;15.77;;;2.10;99.90;;;;;;5056072;28;20458;-68
2021/10/24 02:36:56;;;;;;;30.15;15.82;;;2.20;99.90;;;;;;5054908;28;20404;-68
2021/10/24 02:39:22;;;;;;;33.47;16.45;;;2.20;99.90;;;;;;5055417;28;20048;-68
2021/10/24 02:41:47;;;;;;;32.40;15.65;;;2.20;99.90;;;;;;5054093;28;20363;-68
2021/10/24 02:44:14;;;;;;;29.05;16.73;;;2.20;99.90;;;;;;5055651;28;20145;-68
2021/10/24 02:46:40;;;;;;;37.67;17.67;;;2.20;99.90;;;;;;5055878;28;20013;-68
2021/10/24 02:49:06;;;;;;;38.22;17.60;;;2.30;99.90;;;;;;5055850;28;20382;-68
2021/10/24 02:51:31;;;;;;;31.48;17.40;;;2.40;99.90;;;;;;5055254;28;20455;-68
2021/10/24 02:53:57;;;;;;;38.90;17.00;;;2.50;99.90;;;;;;5055682;28;20036;-68
2021/10/24 02:56:23;;;;;;;34.28;18.13;;;2.50;99.90;;;;;;5055657;28;20033;-68
2021/10/24 02:58:49;;;;;;;31.85;17.00;;;2.50;99.90;;;;;;5055559;28;20387;-68
2021/10/24 03:01:15;;;;;;;32.65;17.23;;;2.50;99.90;;;;;;5055639;28;20029;-68
2021/10/24 03:03:40;;;;;;;29.52;16.63;;;2.40;99.90;;;;;;5055538;28;20490;-68
2021/10/24 03:06:06;;;;;;;31.27;16.17;;;2.40;99.90;;;;;;5053974;28;20065;-68
2021/10/24 03:08:31;;;;;;;33.28;15.52;;;2.30;99.90;;;;;;5055446;28;20032;-68
2021/10/24 03:10:57;;;;;;;25.20;15.27;;;2.20;99.90;;;;;;5055136;28;20372;-68
2021/10/24 03:13:23;;;;;;;30.52;15.73;;;2.20;99.90;;;;;;5055378;28;20033;-69
2021/10/24 03:15:48;;;;;;;30.13;16.67;;;2.10;99.90;;;;;;5055011;28;20078;-68
2021/10/24 03:18:14;;;;;;;29.67;14.57;;;2.20;99.90;;;;;;5055203;28;20029;-68
2021/10/24 03:20:39;;;;;;;34.05;15.90;;;2.30;99.90;;;;;;5055205;28;20021;-68
2021/10/24 03:23:05;;;;;;;28.30;13.95;;;2.20;99.90;;;;;;5055185;28;20479;-68
2021/10/24 03:25:31;;;;;;;35.38;16.25;;;2.20;99.90;;;;;;5055089;28;20447;-68
2021/10/24 03:27:56;;;;;;;27.58;15.65;;;2.20;99.90;;;;;;5055073;28;20029;-68
2021/10/24 03:30:22;;;;;;;32.60;15.25;;;2.20;99.90;;;;;;5053306;28;20067;-68
2021/10/24 03:32:47;;;;;;;26.77;15.15;;;2.20;99.90;;;;;;5054984;28;20025;-68
2021/10/24 03:35:13;;;;;;;29.10;15.13;;;2.20;99.90;;;;;;5053787;28;20032;-68
2021/10/24 03:37:38;;;;;;;29.15;15.18;;;2.20;99.90;;;;;;5054439;28;20445;-68
2021/10/24 03:40:05;;;;;;;29.67;13.70;;;2.20;99.90;;;;;;5054773;28;20071;-68
2021/10/24 03:42:30;;;;;;;25.50;13.98;;;2.20;99.90;;;;;;5053157;28;20025;-68
2021/10/24 03:44:56;;;;;;;29.77;14.85;;;2.10;99.90;;;;;;5054763;28;20112;-68
2021/10/24 03:47:22;;;;;;;27.98;14.57;;;2.10;99.90;;;;;;5054453;28;20017;-68
2021/10/24 03:49:47;;;;;;;26.98;14.63;;;2.10;99.90;;;;;;5054632;28;20025;-68
2021/10/24 03:52:13;;;;;;;32.15;15.23;;;2.00;99.90;;;;;;5054083;28;20025;-68
2021/10/24 03:54:38;;;;;;;33.60;15.73;;;2.10;99.90;;;;;;5054297;28;20116;-68
2021/10/24 03:57:04;;;;;;;28.45;15.23;;;2.10;99.90;;;;;;5054567;28;20033;-68
2021/10/24 03:59:30;;;;;;;27.77;14.43;;;2.00;99.90;;;;;;5054415;28;20029;-68
2021/10/24 04:01:55;;;;;;;30.27;15.52;;;2.00;99.90;;;;;;5053931;28;20025;-68
2021/10/24 04:04:21;;;;;;;26.92;15.70;;;2.00;99.90;;;;;;5053875;28;20025;-68
2021/10/24 04:06:46;;;;;;;33.17;15.95;;;2.10;99.90;;;;;;5053798;28;20028;-68
2021/10/24 04:09:12;;;;;;;29.50;15.35;;;2.10;99.90;;;;;;5053678;28;20024;-68
2021/10/24 04:11:38;;;;;;;28.55;15.40;;;2.00;99.90;;;;;;5053751;28;20029;-68
2021/10/24 04:14:05;;;;;;;30.80;14.68;;;2.00;99.90;;;;;;5053986;28;20378;-68
2021/10/24 04:16:30;;;;;;;26.33;14.38;;;2.00;99.90;;;;;;5054217;28;20459;-68
2021/10/24 04:18:56;;;;;;;26.90;14.88;;;1.90;99.90;;;;;;5054129;28;20048;-68
2021/10/24 04:21:21;;;;;;;30.42;15.45;;;1.90;99.90;;;;;;5054182;28;20463;-68
2021/10/24 04:23:48;;;;;;;24.77;13.65;;;1.90;99.90;;;;;;5054159;28;20408;-68
2021/10/24 04:26:14;;;;;;;25.58;14.00;;;1.80;99.90;;;;;;5053551;28;20375;-68
2021/10/24 04:28:39;;;;;;;27.60;13.88;;;1.80;99.90;;;;;;5054065;28;20025;-68
2021/10/24 04:31:05;;;;;;;30.63;15.05;;;1.80;99.90;;;;;;5053495;28;20029;-68
2021/10/24 04:33:31;;;;;;;28.60;14.68;;;1.80;99.90;;;;;;5052846;28;20029;-68
2021/10/24 04:35:56;;;;;;;32.08;14.55;;;1.90;99.90;;;;;;5053954;28;20470;-68
2021/10/24 04:38:22;;;;;;;30.38;15.60;;;1.80;99.90;;;;;;5053322;28;20139;-68
2021/10/24 04:40:47;;;;;;;24.67;15.32;;;1.80;99.90;;;;;;5053658;28;20028;-68
2021/10/24 04:43:14;;;;;;;25.05;13.27;;;1.80;99.90;;;;;;5036312;28;20059;-68
2021/10/24 04:45:41;;;;;;;26.00;13.43;;;1.70;99.90;;;;;;5053626;28;20017;-68
2021/10/24 04:48:07;;;;;;;24.52;13.43;;;1.70;99.90;;;;;;5053621;28;20031;-67
2021/10/24 04:50:32;;;;;;;27.48;13.57;;;1.70;99.90;;;;;;5052046;28;20390;-67
2021/10/24 04:52:58;;;;;;;26.13;13.73;;;1.60;99.90;;;;;;5052290;28;20024;-68
2021/10/24 04:55:24;;;;;;;27.38;14.63;;;1.60;99.90;;;;;;5053587;28;20021;-68
2021/10/24 04:57:49;;;;;;;24.90;14.18;;;1.60;99.90;;;;;;5053240;28;20390;-68
2021/10/24 05:00:15;;;;;;;26.50;13.68;;;1.60;99.90;;;;;;5052525;28;20454;-68
2021/10/24 05:02:40;;;;;;;27.75;14.00;;;1.50;99.90;;;;;;5051963;28;20025;-68
2021/10/24 05:05:08;;;;;;;29.70;13.77;;;1.60;99.90;;;;;;5053730;28;20036;-68
2021/10/24 05:07:34;;;;;;;25.85;13.82;;;1.50;99.90;;;;;;5052716;28;20021;-68
2021/10/24 05:09:59;;;;;;;29.85;14.95;;;1.60;99.90;;;;;;5053669;28;20432;-68
2021/10/24 05:12:25;;;;;;;30.50;13.70;;;1.60;99.90;;;;;;5052232;28;20553;-68
2021/10/24 05:14:50;;;;;;;27.08;14.80;;;1.60;99.90;;;;;;5035230;28;20143;-69
2021/10/24 05:17:16;;;;;;;23.17;13.32;;;1.60;99.90;;;;;;5053617;28;20371;-69
2021/10/24 05:19:42;;;;;;;29.27;13.63;;;1.60;99.90;;;;;;5053512;28;20041;-69
2021/10/24 05:22:08;;;;;;;23.67;13.75;;;1.50;99.90;;;;;;5056162;28;20366;-69
2021/10/24 05:24:34;;;;;;;22.52;13.13;;;1.50;99.90;;;;;;5057426;28;20023;-69
2021/10/24 05:26:59;;;;;;;25.58;13.57;;;1.50;99.90;;;;;;5057115;28;20108;-68
2021/10/24 05:29:25;;;;;;;25.95;14.32;;;1.40;99.90;;;;;;5057087;28;20035;-68
2021/10/24 05:31:50;;;;;;;26.65;14.25;;;1.40;99.90;;;;;;5056067;28;20366;-68
2021/10/24 05:34:16;;;;;;;22.75;12.68;;;1.40;99.90;;;;;;5056963;28;20520;-68
2021/10/24 05:36:43;;;;;;;24.23;13.15;;;1.40;99.90;;;;;;5057232;28;20025;-68
2021/10/24 05:39:09;;;;;;;26.83;14.18;;;1.40;99.90;;;;;;5055201;28;20037;-69
2021/10/24 05:41:35;;;;;;;22.55;12.77;;;1.30;99.90;;;;;;5057126;28;20412;-68
2021/10/24 05:44:01;;;;;;;25.85;12.93;;;1.30;99.90;;;;;;5056798;28;20422;-69
2021/10/24 05:46:27;;;;;;;27.33;14.27;;;1.30;99.90;;;;;;5057047;28;20049;-69
2021/10/24 05:48:53;;;;;;;23.90;13.63;;;1.30;99.90;;;;;;5056986;28;20082;-68
2021/10/24 05:51:18;;;;;;;21.27;12.35;;;1.30;99.90;;;;;;5055097;28;20021;-69
2021/10/24 05:53:44;;;;;;;21.83;13.30;;;1.20;99.90;;;;;;5055758;28;20028;-67
2021/10/24 05:56:10;;;;;;;23.33;13.30;;;1.20;99.90;;;;;;5056570;28;20057;-67
2021/10/24 05:58:36;;;;;;;28.92;14.20;;;1.10;99.90;;;;;;5054909;28;20033;-67
2021/10/24 06:01:01;;;;;;;28.83;14.18;;;1.20;99.90;;;;;;5056751;28;20028;-66
2021/10/24 06:03:27;;;;;;;23.23;13.23;;;1.10;99.90;;;;;;5056713;28;20029;-68
2021/10/24 06:05:52;;;;;;;21.88;12.90;;;1.10;99.90;;;;;;5056107;28;20029;-67
2021/10/24 06:08:22;;;;;;;21.02;12.48;;;1.10;99.90;;;;;;5056328;28;20113;-67
2021/10/24 06:10:51;;;;;;;22.63;13.85;;;1.10;99.90;;;;;;5055149;28;20360;-66
2021/10/24 06:13:17;;;;;;;29.75;13.98;;;1.10;99.90;;;;;;5056195;28;20360;-67
2021/10/24 06:15:43;;;;;;;22.58;13.27;;;1.20;99.90;;;;;;5054661;28;20023;-68
2021/10/24 06:18:09;;;;;;;24.92;12.90;;;1.20;99.90;;;;;;5055892;28;20079;-69
2021/10/24 06:20:35;;;;;;;32.20;13.98;;;1.20;99.90;;;;;;5054522;28;20395;-68
2021/10/24 06:23:01;;;;;;;23.92;13.35;;;1.20;99.90;;;;;;5056333;28;20025;-68
2021/10/24 06:25:27;;;;;;;21.20;12.50;;;1.20;99.90;;;;;;5056316;28;20429;-68
2021/10/24 06:27:53;;;;;;;26.80;13.65;;;1.30;99.90;;;;;;5056260;28;20421;-68
2021/10/24 06:30:21;;;;;;;27.13;14.23;;;1.30;99.90;;;;;;5054438;28;20032;-68
2021/10/24 06:32:47;;;;;;;25.33;13.93;;;1.40;99.90;;;;;;5055852;28;20043;-68
2021/10/24 06:35:13;;;;;;;27.20;15.38;;;1.50;99.90;;;;;;5055845;28;20103;-67
2021/10/24 06:37:42;;;;;;;33.03;16.15;;;1.70;99.90;;;;;;5056199;28;20033;-69
2021/10/24 06:40:08;;;;;;;31.15;17.40;;;1.90;99.90;;;;;;5055670;28;20060;-68
2021/10/24 06:42:35;;;;;;;34.88;19.45;;;2.40;99.90;;;;;;5055673;28;20372;-68
2021/10/24 06:45:00;;;;;;;35.92;19.00;;;3.20;99.90;;;;;;5055936;28;20017;-69
2021/10/24 06:47:26;;;;;;;33.55;17.90;;;4.30;99.90;;;;;;5055913;28;20025;-69
2021/10/24 06:49:51;;;;;;;28.02;16.77;;;5.10;99.90;;;;;;5054377;28;20029;-69
2021/10/24 06:52:17;;;;;;;24.83;13.63;;;5.90;99.90;;;;;;5055806;28;20021;-68
2021/10/24 06:54:42;;;;;;;17.02;10.85;;;6.80;99.90;;;;;;5053971;28;20029;-68
2021/10/24 06:57:08;;;;;;;11.38;7.63;;;7.60;99.90;;;;;;5055710;28;20486;-69
2021/10/24 06:59:34;;;;;;;13.63;7.68;;;8.20;99.90;;;;;;5055309;28;20029;-71
2021/10/24 07:02:00;;;;;;;11.88;6.65;;;8.70;99.90;;;;;;5053820;28;20017;-70
2021/10/24 07:04:25;;;;;;;10.90;6.90;;;9.20;99.90;;;;;;5055298;28;20539;-71
2021/10/24 07:06:51;;;;;;;12.48;7.15;;;9.30;99.90;;;;;;5054381;28;20049;-71
2021/10/24 07:09:16;;;;;;;9.48;6.35;;;9.50;99.90;;;;;;5055482;28;20111;-69
2021/10/24 07:11:42;;;;;;;9.30;5.82;;;9.70;99.90;;;;;;5055152;28;20054;-71
2021/10/24 07:14:07;;;;;;;8.05;5.78;;;9.60;99.90;;;;;;5055101;28;20028;-71
2021/10/24 07:16:33;;;;;;;12.43;6.65;;;9.90;99.90;;;;;;5055340;28;20047;-69
2021/10/24 07:18:58;;;;;;;11.82;6.45;;;10.20;99.90;;;;;;5054022;28;20083;-71
2021/10/24 07:21:24;;;;;;;7.85;5.80;;;11.00;99.90;;;;;;5054105;28;20032;-70
2021/10/24 07:23:50;;;;;;;15.10;5.82;;;11.30;99.90;;;;;;5053367;28;20021;-71
2021/10/24 07:26:17;;;;;;;8.60;5.90;;;11.70;99.90;;;;;;5053713;28;20021;-71
2021/10/24 07:28:42;;;;;;;11.85;5.38;;;11.80;99.90;;;;;;5053325;28;20494;-71
2021/10/24 07:31:08;;;;;;;7.50;5.15;;;12.00;99.90;;;;;;5053895;28;20029;-71
2021/10/24 07:33:34;;;;;;;9.98;5.55;;;11.80;99.90;;;;;;5054721;28;20025;-71
2021/10/24 07:36:00;;;;;;;11.82;5.57;;;12.20;99.90;;;;;;5054412;28;20068;-71
2021/10/24 07:38:25;;;;;;;11.00;5.60;;;12.30;99.90;;;;;;5054300;28;20049;-71
2021/10/24 07:40:51;;;;;;;8.50;5.13;;;12.80;99.90;;;;;;5054309;28;20021;-71
2021/10/24 07:43:19;;;;;;;8.68;5.70;;;13.00;99.90;;;;;;5035931;28;20021;-71
2021/10/24 07:45:46;;;;;;;8.43;5.45;;;13.50;99.90;;;;;;5053416;28;20395;-71
2021/10/24 07:48:12;;;;;;;6.88;5.32;;;13.40;99.90;;;;;;5054750;28;20017;-71
2021/10/24 07:50:37;;;;;;;8.02;5.00;;;14.20;99.90;;;;;;5054394;28;20037;-71
2021/10/24 07:53:03;;;;;;;9.50;6.20;;;14.30;99.90;;;;;;5054636;28;20032;-71
2021/10/24 07:55:29;;;;;;;8.07;5.38;;;14.00;99.90;;;;;;5054551;28;20031;-71
2021/10/24 07:57:55;;;;;;;10.70;5.63;;;14.70;99.90;;;;;;5054516;28;20029;-70
2021/10/24 08:00:22;;;;;;;11.75;6.35;;;14.90;99.90;;;;;;5054155;28;20025;-70
2021/10/24 08:02:48;;;;;;;10.68;6.00;;;13.80;99.90;;;;;;5054431;28;20494;-71
2021/10/24 08:05:14;;;;;;;12.90;6.90;;;14.50;99.90;;;;;;5054445;28;20052;-71
2021/10/24 08:07:40;;;;;;;10.75;6.53;;;14.50;99.90;;;;;;5052604;28;20059;-71
2021/10/24 08:10:07;;;;;;;11.15;7.18;;;14.70;99.90;;;;;;5053200;28;20100;-71
2021/10/24 08:12:33;;;;;;;11.77;6.97;;;13.90;99.90;;;;;;5054319;28;20021;-71
2021/10/24 08:14:59;;;;;;;10.10;7.07;;;14.50;99.90;;;;;;5053079;28;20095;-70
2021/10/24 08:17:25;;;;;;;10.50;6.72;;;13.90;99.90;;;;;;5053952;28;20067;-71
2021/10/24 08:19:51;;;;;;;8.93;6.80;;;13.30;99.90;;;;;;5054086;28;20370;-71
2021/10/24 08:22:18;;;;;;;9.32;6.53;;;13.90;99.90;;;;;;5054135;28;20021;-71
2021/10/24 08:24:45;;;;;;;11.45;7.00;;;13.90;99.90;;;;;;5052634;28;20472;-71
2021/10/24 08:27:10;;;;;;;13.13;6.78;;;14.90;99.90;;;;;;5052994;28;20028;-71
2021/10/24 08:29:37;;;;;;;9.07;6.55;;;15.30;99.90;;;;;;5053547;28;20398;-71
2021/10/24 08:32:05;;;;;;;11.15;6.82;;;15.40;99.90;;;;;;5053701;28;20374;-71
2021/10/24 08:34:31;;;;;;;10.73;6.30;;;15.30;99.90;;;;;;5053734;28;20381;-71
2021/10/24 08:36:57;;;;;;;9.68;6.55;;;15.30;99.90;;;;;;5053716;28;20021;-71
2021/10/24 08:39:23;;;;;;;9.40;6.43;;;15.80;99.90;;;;;;5052142;28;20048;-71
2021/10/24 08:41:50;;;;;;;11.73;6.60;;;15.50;99.90;;;;;;5052758;28;20104;-71
2021/10/24 08:44:16;;;;;;;10.23;6.13;;;16.20;99.90;;;;;;5052731;28;20022;-71
2021/10/24 08:46:43;;;;;;;10.85;6.43;;;16.40;99.90;;;;;;5053560;28;20025;-71
2021/10/24 08:49:09;;;;;;;9.35;5.75;;;16.20;99.90;;;;;;5053900;28;20021;-71
2021/10/24 08:51:35;;;;;;;9.10;5.50;;;15.70;99.90;;;;;;5053845;28;20029;-71
2021/10/24 08:54:02;;;;;;;9.48;6.00;;;15.20;99.90;;;;;;5053837;28;20086;-71
2021/10/24 08:56:29;;;;;;;8.50;5.28;;;15.60;99.90;;;;;;5055652;28;20029;-71
2021/10/24 08:58:56;;;;;;;8.82;5.75;;;16.10;99.90;;;;;;5056453;28;20017;-71
2021/10/24 09:01:22;;;;;;;11.35;5.93;;;16.40;99.90;;;;;;5057881;28;20024;-71
2021/10/24 09:04:07;;;;;;;14.35;6.20;;;16.70;99.90;;;;;;5056026;28;20382;-71
2021/10/24 09:06:58;;;;;;;8.07;5.43;;;16.70;99.90;;;;;;5057509;28;20033;-71
2021/10/24 09:09:34;;;;;;;10.10;6.15;;;16.70;99.90;;;;;;5057160;28;20071;-71
2021/10/24 09:12:04;;;;;;;13.10;5.72;;;16.20;99.90;;;;;;5057702;28;20056;-71
2021/10/24 09:14:53;;;;;;;8.38;5.68;;;15.60;99.90;;;;;;5056168;28;20104;-71
2021/10/24 09:17:25;;;;;;;9.73;5.15;;;16.30;99.90;;;;;;5055840;28;20074;-71
2021/10/24 09:19:54;;;;;;;9.33;5.07;;;16.50;99.90;;;;;;5055757;28;20479;-71
2021/10/24 09:22:39;;;;;;;8.93;5.80;;;17.10;99.90;;;;;;5057451;28;20247;-71
2021/10/24 09:25:14;;;;;;;9.90;5.18;;;16.60;99.90;;;;;;5056333;28;20116;-71
2021/10/24 09:27:57;;;;;;;9.85;5.55;;;17.10;99.90;;;;;;5057136;28;20351;-71
2021/10/24 09:30:34;;;;;;;9.20;5.47;;;16.50;99.90;;;;;;5055589;28;20021;-71
2021/10/24 09:33:04;;;;;;;7.85;5.47;;;16.80;99.90;;;;;;5038964;28;20486;-71
2021/10/24 09:35:36;;;;;;;10.18;5.78;;;17.50;99.90;;;;;;5057239;28;20382;-71
2021/10/24 09:38:03;;;;;;;6.40;4.65;;;18.00;99.80;;;;;;5056473;28;20087;-71
2021/10/24 09:40:34;;;;;;;9.50;4.65;;;18.00;99.90;;;;;;5057055;28;20047;-71
2021/10/24 09:48:36;;;;;;;9.60;4.22;;;17.30;98.90;;;;;;5112185;27;20616;-71
2021/10/24 09:51:10;;;;;;;7.30;4.38;;;17.20;99.50;;;;;;5111959;28;20027;-71
2021/10/24 09:53:39;;;;;;;9.32;4.35;;;17.10;99.90;;;;;;5110775;28;20077;-72
2021/10/24 09:56:07;;;;;;;8.18;4.75;;;18.10;99.70;;;;;;5111834;28;20023;-71
2021/10/24 09:58:37;;;;;;;6.38;4.13;;;17.10;99.90;;;;;;5110826;28;20133;-71
2021/10/24 10:01:04;;;;;;;5.63;3.40;;;17.70;99.90;;;;;;5110287;28;20031;-71
2021/10/24 10:03:31;;;;;;;6.32;3.15;;;18.00;98.40;;;;;;5111588;28;20016;-71
2021/10/24 10:05:57;;;;;;;7.47;3.30;;;17.70;98.10;;;;;;5111670;28;20039;-71
2021/10/24 10:08:24;;;;;;;4.90;2.80;;;17.60;95.40;;;;;;5111256;28;20047;-71
2021/10/24 10:10:54;;;;;;;6.60;3.08;;;17.50;95.80;;;;;;5111574;28;20107;-71
2021/10/24 10:13:23;;;;;;;6.22;3.17;;;17.60;94.50;;;;;;5110066;28;20024;-71
2021/10/24 10:15:50;;;;;;;5.50;2.97;;;17.40;95.40;;;;;;5110346;28;20016;-71
2021/10/24 10:18:17;;;;;;;5.80;3.28;;;17.40;96.20;;;;;;5109997;28;20020;-71
2021/10/24 10:20:49;;;;;;;6.30;3.17;;;17.30;96.80;;;;;;5092665;28;20020;-71
2021/10/24 10:23:20;;;;;;;8.23;3.28;;;17.40;95.90;;;;;;5111348;28;20024;-71
2021/10/24 10:25:45;;;;;;;4.93;3.00;;;17.60;95.50;;;;;;5111048;28;20035;-71
2021/10/24 10:28:15;;;;;;;9.02;3.53;;;17.50;96.00;;;;;;5110884;28;20028;-71
2021/10/24 10:30:43;;;;;;;7.57;2.90;;;18.10;95.70;;;;;;5110855;28;20047;-71
2021/10/24 10:33:31;;;;;;;5.90;2.92;;;18.40;93.90;;;;;;5092531;28;20035;-71
2021/10/24 10:35:59;;;;;;;4.57;2.65;;;18.90;94.00;;;;;;5110487;28;20030;-71
2021/10/24 10:38:33;;;;;;;8.25;3.00;;;18.30;93.20;;;;;;5109655;28;20026;-71
2021/10/24 10:40:59;;;;;;;7.40;3.00;;;17.90;93.70;;;;;;5110728;28;20024;-71
2021/10/24 10:43:25;;;;;;;5.50;3.42;;;17.50;94.40;;;;;;5109495;28;20446;-71
2021/10/24 10:45:56;;;;;;;8.80;3.80;;;17.10;95.00;;;;;;5110850;28;20457;-71
2021/10/24 10:48:27;;;;;;;8.18;3.20;;;17.30;95.90;;;;;;5110137;28;20062;-71
2021/10/24 10:50:57;;;;;;;7.30;3.20;;;17.00;95.30;;;;;;5110578;28;20020;-71
2021/10/24 10:53:50;;;;;;;5.85;3.28;;;17.10;97.60;;;;;;5110461;28;20069;-72
2021/10/24 10:56:19;;;;;;;6.90;3.40;;;17.40;96.40;;;;;;5110438;28;20016;-71
2021/10/24 10:58:48;;;;;;;10.88;4.30;;;17.70;96.10;;;;;;5103206;28;20016;-71
2021/10/24 11:01:29;;;;;;;6.03;3.55;;;18.00;95.80;;;;;;5095599;28;20098;-71
2021/10/24 11:04:15;;;;;;;6.43;3.70;;;17.00;96.70;;;;;;5097005;28;20023;-71
2021/10/24 11:06:54;;;;;;;9.05;4.25;;;16.70;97.80;;;;;;5096872;28;20078;-71
2021/10/24 11:09:42;;;;;;;6.50;3.50;;;16.30;98.20;;;;;;5096907;28;20099;-71
2021/10/24 11:12:10;;;;;;;6.60;3.67;;;16.00;99.10;;;;;;5095176;28;20026;-71
2021/10/24 11:14:39;;;;;;;6.57;3.92;;;15.90;99.90;;;;;;5078657;28;20024;-71
2021/10/24 11:17:05;;;;;;;5.35;4.28;;;15.50;99.90;;;;;;5096741;28;20042;-71
2021/10/24 11:22:16;;;;;;;8.80;4.28;;;14.70;99.90;;;;;;5091866;27;20902;-71
2021/10/24 11:24:52;;;;;;;10.05;4.55;;;14.50;99.90;;;;;;5090153;28;20107;-71
2021/10/24 11:27:22;;;;;;;8.65;4.45;;;14.70;99.90;;;;;;5091261;28;20032;-71
2021/10/24 11:29:57;;;;;;;9.20;4.20;;;14.90;99.90;;;;;;5089776;28;20020;-71
2021/10/24 11:37:49;;;;;;;9.63;5.00;;;14.80;99.90;;;;;;5112199;27;20754;-71
2021/10/24 11:40:20;;;;;;;9.15;4.07;;;14.30;99.90;;;;;;5093485;28;20023;-71
2021/10/24 11:43:07;;;;;;;7.53;3.72;;;14.30;99.90;;;;;;5111875;28;20073;-71
2021/10/24 11:45:39;;;;;;;7.28;4.20;;;14.50;99.90;;;;;;5111295;28;20016;-71
2021/10/24 11:48:07;;;;;;;7.97;4.47;;;14.30;99.90;;;;;;5111475;28;20043;-70
2021/10/24 11:50:58;;;;;;;9.43;4.43;;;14.30;99.90;;;;;;5092941;28;20114;-71
2021/10/24 11:53:45;;;;;;;7.10;4.13;;;14.20;99.90;;;;;;5111677;28;20046;-71
2021/10/24 11:56:17;;;;;;;7.60;4.40;;;14.40;99.90;;;;;;5109993;28;20047;-70
2021/10/24 11:58:55;;;;;;;9.30;4.15;;;14.10;99.90;;;;;;5109741;28;20069;-71
2021/10/24 12:01:22;;;;;;;9.98;4.70;;;14.00;99.90;;;;;;5111510;28;20024;-71
2021/10/24 12:04:06;;;;;;;6.88;4.40;;;14.00;99.90;;;;;;5111413;28;20016;-70
2021/10/24 12:07:02;;;;;;;10.40;4.65;;;14.00;99.90;;;;;;5111216;28;20027;-71
2021/10/24 12:09:31;;;;;;;6.15;3.72;;;14.10;99.90;;;;;;5111398;28;20024;-71
2021/10/24 12:12:08;;;;;;;9.38;4.75;;;14.30;99.90;;;;;;5110770;28;20016;-71
2021/10/24 12:14:46;;;;;;;8.80;4.30;;;14.50;99.90;;;;;;5110161;28;20020;-71
2021/10/24 12:17:16;;;;;;;8.10;4.32;;;14.60;99.90;;;;;;5111099;28;20020;-70
2021/10/24 12:19:42;;;;;;;7.80;4.28;;;14.70;99.90;;;;;;5109352;28;20157;-70
2021/10/24 12:22:08;;;;;;;14.23;4.60;;;14.60;99.90;;;;;;5110611;28;20107;-71
2021/10/24 12:24:51;;;;;;;10.95;5.18;;;14.70;99.90;;;;;;5110816;28;20066;-70
2021/10/24 12:27:25;;;;;;;7.70;4.67;;;14.60;99.90;;;;;;5111075;28;20384;-70
2021/10/24 12:30:09;;;;;;;7.80;4.60;;;14.70;99.90;;;;;;5110683;28;20027;-71
2021/10/24 12:32:36;;;;;;;6.97;4.50;;;14.60;99.90;;;;;;5110709;28;20081;-70
2021/10/24 12:35:08;;;;;;;7.95;4.72;;;14.70;99.90;;;;;;5110937;28;20066;-71
2021/10/24 12:37:37;;;;;;;7.28;4.32;;;14.40;99.90;;;;;;5110100;28;20054;-71
2021/10/24 12:40:24;;;;;;;10.25;4.38;;;14.60;99.90;;;;;;5109651;28;20377;-70
2021/10/24 12:43:11;;;;;;;12.60;4.90;;;14.50;99.90;;;;;;5110691;28;20019;-70
2021/10/24 12:45:49;;;;;;;9.20;4.70;;;14.50;99.90;;;;;;5110655;28;20020;-70
2021/10/24 12:48:16;;;;;;;8.75;4.63;;;14.80;99.90;;;;;;5101570;28;20377;-70
2021/10/24 12:50:42;;;;;;;8.57;4.97;;;14.70;99.90;;;;;;5095949;28;20365;-70
2021/10/24 12:53:11;;;;;;;7.50;4.65;;;14.70;99.90;;;;;;5095498;28;20058;-71
2021/10/24 12:55:38;;;;;;;7.95;4.57;;;14.80;99.90;;;;;;5095728;28;20063;-70
2021/10/24 12:58:04;;;;;;;8.10;5.03;;;14.90;99.90;;;;;;5096327;28;20020;-70